sensor_id;sensor_type;location;lat;lon;timestamp;pressure;altitude;pressure_sealevel;temperature;humidity
78373;BME280;67656;52.074;4.758;2024-03-02T00:00:12;99913.59;;;6.14;100.00
78373;BME280;67656;52.074;4.758;2024-03-02T00:05:18;99906.03;;;6.02;100.00
78373;BME280;67656;52.074;4.758;2024-03-02T00:10:26;99921.19;;;5.89;100.00
78373;BME280;67656;52.074;4.758;2024-03-02T00:20:30;99937.97;;;5.80;100.00
78373;BME280;67656;52.074;4.758;2024-03-02T00:25:47;99932.94;;;5.69;100.00
78373;BME280;67656;52.074;4.758;2024-03-02T00:35:57;99946.09;;;5.68;100.00
78373;BME280;67656;52.074;4.758;2024-03-02T00:40:59;99944.25;;;5.73;100.00
78373;BME280;67656;52.074;4.758;2024-03-02T00:46:00;99929.59;;;5.64;100.00
78373;BME280;67656;52.074;4.758;2024-03-02T00:51:01;99942.63;;;5.66;100.00
78373;BME280;67656;52.074;4.758;2024-03-02T00:56:01;99932.31;;;5.60;100.00
78373;BME280;67656;52.074;4.758;2024-03-02T01:01:02;99935.00;;;5.57;100.00
78373;BME280;67656;52.074;4.758;2024-03-02T01:06:03;99951.59;;;5.56;100.00
78373;BME280;67656;52.074;4.758;2024-03-02T01:11:04;99953.41;;;5.52;100.00
78373;BME280;67656;52.074;4.758;2024-03-02T01:16:05;99935.16;;;5.49;100.00
78373;BME280;67656;52.074;4.758;2024-03-02T01:21:05;99927.38;;;5.46;100.00
78373;BME280;67656;52.074;4.758;2024-03-02T01:26:05;99918.72;;;5.42;100.00
78373;BME280;67656;52.074;4.758;2024-03-02T01:31:06;99930.78;;;5.49;100.00
78373;BME280;67656;52.074;4.758;2024-03-02T01:36:06;99944.84;;;5.45;100.00
78373;BME280;67656;52.074;4.758;2024-03-02T01:41:07;99966.78;;;5.38;100.00
78373;BME280;67656;52.074;4.758;2024-03-02T01:46:07;99953.59;;;5.44;100.00
78373;BME280;67656;52.074;4.758;2024-03-02T01:51:08;99956.94;;;5.49;100.00
78373;BME280;67656;52.074;4.758;2024-03-02T01:56:08;99950.06;;;5.45;100.00
78373;BME280;67656;52.074;4.758;2024-03-02T02:01:09;99986.63;;;5.48;100.00
78373;BME280;67656;52.074;4.758;2024-03-02T02:06:09;99952.69;;;5.45;100.00
78373;BME280;67656;52.074;4.758;2024-03-02T02:11:10;99957.09;;;5.43;100.00
78373;BME280;67656;52.074;4.758;2024-03-02T02:16:11;99963.25;;;5.41;100.00
78373;BME280;67656;52.074;4.758;2024-03-02T02:21:11;99972.91;;;5.37;100.00
78373;BME280;67656;52.074;4.758;2024-03-02T02:26:12;99970.13;;;5.45;100.00
78373;BME280;67656;52.074;4.758;2024-03-02T02:31:13;99973.69;;;5.42;100.00
78373;BME280;67656;52.074;4.758;2024-03-02T02:36:13;99970.13;;;5.45;100.00
78373;BME280;67656;52.074;4.758;2024-03-02T02:41:14;99971.06;;;5.42;100.00
78373;BME280;67656;52.074;4.758;2024-03-02T02:46:14;99978.78;;;5.48;100.00
78373;BME280;67656;52.074;4.758;2024-03-02T02:51:14;99971.81;;;5.49;100.00
78373;BME280;67656;52.074;4.758;2024-03-02T02:56:15;99976.97;;;5.52;100.00
78373;BME280;67656;52.074;4.758;2024-03-02T03:01:16;99971.03;;;5.44;100.00
78373;BME280;67656;52.074;4.758;2024-03-02T03:06:16;99972.75;;;5.46;100.00
78373;BME280;67656;52.074;4.758;2024-03-02T03:11:17;99968.31;;;5.48;100.00
78373;BME280;67656;52.074;4.758;2024-03-02T03:16:17;99971.06;;;5.42;100.00
78373;BME280;67656;52.074;4.758;2024-03-02T03:21:17;99970.47;;;5.29;100.00
78373;BME280;67656;52.074;4.758;2024-03-02T03:26:18;99968.59;;;5.34;100.00
78373;BME280;67656;52.074;4.758;2024-03-02T03:31:18;99965.94;;;5.36;100.00
78373;BME280;67656;52.074;4.758;2024-03-02T03:36:21;99971.25;;;5.33;100.00
78373;BME280;67656;52.074;4.758;2024-03-02T03:41:21;99981.78;;;5.30;100.00
78373;BME280;67656;52.074;4.758;2024-03-02T03:46:22;99984.44;;;5.28;100.00
78373;BME280;67656;52.074;4.758;2024-03-02T03:51:22;99987.06;;;5.27;100.00
78373;BME280;67656;52.074;4.758;2024-03-02T03:56:23;99983.81;;;5.15;100.00
78373;BME280;67656;52.074;4.758;2024-03-02T04:01:23;100005.72;;;5.10;100.00
78373;BME280;67656;52.074;4.758;2024-03-02T04:06:24;100000.72;;;4.97;100.00
78373;BME280;67656;52.074;4.758;2024-03-02T04:11:24;99998.22;;;4.91;100.00
78373;BME280;67656;52.074;4.758;2024-03-02T04:16:24;100002.72;;;4.84;100.00
78373;BME280;67656;52.074;4.758;2024-03-02T04:21:25;100010.59;;;4.81;100.00
78373;BME280;67656;52.074;4.758;2024-03-02T04:26:26;100015.88;;;4.78;100.00
78373;BME280;67656;52.074;4.758;2024-03-02T04:31:27;100010.69;;;4.75;100.00
78373;BME280;67656;52.074;4.758;2024-03-02T04:36:27;100008.97;;;4.74;100.00
78373;BME280;67656;52.074;4.758;2024-03-02T04:41:28;100010.84;;;4.66;100.00
78373;BME280;67656;52.074;4.758;2024-03-02T04:46:28;100010.94;;;4.61;100.00
78373;BME280;67656;52.074;4.758;2024-03-02T04:51:28;100017.97;;;4.57;100.00
78373;BME280;67656;52.074;4.758;2024-03-02T04:56:29;100034.53;;;4.55;100.00
78373;BME280;67656;52.074;4.758;2024-03-02T05:01:29;100038.97;;;4.53;100.00
78373;BME280;67656;52.074;4.758;2024-03-02T05:06:29;100038.03;;;4.54;100.00
78373;BME280;67656;52.074;4.758;2024-03-02T05:11:30;100035.50;;;4.49;100.00
78373;BME280;67656;52.074;4.758;2024-03-02T05:16:34;100035.44;;;4.55;100.00
78373;BME280;67656;52.074;4.758;2024-03-02T05:21:35;100034.66;;;4.49;100.00
78373;BME280;67656;52.074;4.758;2024-03-02T05:26:35;100036.59;;;4.36;100.00
78373;BME280;67656;52.074;4.758;2024-03-02T05:31:36;100053.19;;;4.35;100.00
78373;BME280;67656;52.074;4.758;2024-03-02T05:36:36;100052.41;;;4.28;100.00
78373;BME280;67656;52.074;4.758;2024-03-02T05:41:37;100055.81;;;4.32;100.00
78373;BME280;67656;52.074;4.758;2024-03-02T05:46:37;100066.94;;;4.46;100.00
78373;BME280;67656;52.074;4.758;2024-03-02T05:51:37;100060.66;;;4.56;100.00
78373;BME280;67656;52.074;4.758;2024-03-02T05:56:38;100063.75;;;4.80;100.00
78373;BME280;67656;52.074;4.758;2024-03-02T06:01:42;100053.19;;;4.86;100.00
78373;BME280;67656;52.074;4.758;2024-03-02T06:06:45;100055.53;;;5.02;100.00
78373;BME280;67656;52.074;4.758;2024-03-02T06:11:46;100046.91;;;4.98;100.00
78373;BME280;67656;52.074;4.758;2024-03-02T06:16:46;100052.09;;;5.00;100.00
78373;BME280;67656;52.074;4.758;2024-03-02T06:21:47;100057.31;;;5.00;100.00
78373;BME280;67656;52.074;4.758;2024-03-02T06:26:47;100063.44;;;4.99;100.00
78373;BME280;67656;52.074;4.758;2024-03-02T06:31:48;100066.94;;;4.99;100.00
78373;BME280;67656;52.074;4.758;2024-03-02T06:36:48;100074.81;;;4.96;100.00
78373;BME280;67656;52.074;4.758;2024-03-02T06:41:49;100081.91;;;4.89;100.00
78373;BME280;67656;52.074;4.758;2024-03-02T06:46:49;100082.88;;;4.84;100.00
78373;BME280;67656;52.074;4.758;2024-03-02T06:51:50;100076.81;;;4.82;100.00
78373;BME280;67656;52.074;4.758;2024-03-02T06:56:56;100071.63;;;4.80;100.00
78373;BME280;67656;52.074;4.758;2024-03-02T07:02:01;100075.16;;;4.76;100.00
78373;BME280;67656;52.074;4.758;2024-03-02T07:07:01;100082.91;;;4.81;100.00
78373;BME280;67656;52.074;4.758;2024-03-02T07:12:02;100086.41;;;4.81;100.00
78373;BME280;67656;52.074;4.758;2024-03-02T07:17:02;100101.25;;;4.79;100.00
78373;BME280;67656;52.074;4.758;2024-03-02T07:22:06;100097.03;;;4.70;100.00
78373;BME280;67656;52.074;4.758;2024-03-02T07:27:06;100097.91;;;4.71;100.00
78373;BME280;67656;52.074;4.758;2024-03-02T07:32:08;100109.94;;;4.80;100.00
78373;BME280;67656;52.074;4.758;2024-03-02T07:37:08;100116.75;;;4.91;100.00
78373;BME280;67656;52.074;4.758;2024-03-02T07:42:09;100114.09;;;4.95;100.00
78373;BME280;67656;52.074;4.758;2024-03-02T07:47:09;100119.16;;;5.04;100.00
78373;BME280;67656;52.074;4.758;2024-03-02T07:52:10;100118.78;;;5.26;100.00
78373;BME280;67656;52.074;4.758;2024-03-02T07:57:11;100124.66;;;5.37;100.00
78373;BME280;67656;52.074;4.758;2024-03-02T08:02:11;100122.41;;;5.65;100.00
78373;BME280;67656;52.074;4.758;2024-03-02T08:07:12;100123.91;;;5.77;100.00
78373;BME280;67656;52.074;4.758;2024-03-02T08:12:12;100117.72;;;6.25;100.00
78373;BME280;67656;52.074;4.758;2024-03-02T08:17:15;100116.25;;;6.53;100.00
78373;BME280;67656;52.074;4.758;2024-03-02T08:22:16;100100.53;;;6.89;100.00
78373;BME280;67656;52.074;4.758;2024-03-02T08:27:17;100100.22;;;7.36;100.00
78373;BME280;67656;52.074;4.758;2024-03-02T08:32:17;100092.63;;;6.90;100.00
78373;BME280;67656;52.074;4.758;2024-03-02T08:37:17;100090.50;;;6.70;100.00
78373;BME280;67656;52.074;4.758;2024-03-02T08:42:18;100089.59;;;6.71;100.00
78373;BME280;67656;52.074;4.758;2024-03-02T08:47:18;100100.75;;;6.80;100.00
78373;BME280;67656;52.074;4.758;2024-03-02T08:52:19;100100.94;;;6.72;100.00
78373;BME280;67656;52.074;4.758;2024-03-02T08:57:19;100102.56;;;6.78;100.00
78373;BME280;67656;52.074;4.758;2024-03-02T09:02:20;100114.69;;;6.82;100.00
78373;BME280;67656;52.074;4.758;2024-03-02T09:07:20;100110.81;;;6.98;100.00
78373;BME280;67656;52.074;4.758;2024-03-02T09:12:21;100119.34;;;7.06;100.00
78373;BME280;67656;52.074;4.758;2024-03-02T09:17:24;100118.28;;;7.14;100.00
78373;BME280;67656;52.074;4.758;2024-03-02T09:22:24;100118.75;;;7.30;100.00
78373;BME280;67656;52.074;4.758;2024-03-02T09:27:26;100120.25;;;7.38;100.00
78373;BME280;67656;52.074;4.758;2024-03-02T09:32:27;100122.56;;;7.51;100.00
78373;BME280;67656;52.074;4.758;2024-03-02T09:37:27;100112.47;;;7.68;100.00
78373;BME280;67656;52.074;4.758;2024-03-02T09:42:37;100121.16;;;7.71;100.00
78373;BME280;67656;52.074;4.758;2024-03-02T09:47:42;100110.38;;;7.80;100.00
78373;BME280;67656;52.074;4.758;2024-03-02T09:52:43;100101.16;;;7.96;100.00
78373;BME280;67656;52.074;4.758;2024-03-02T09:57:45;100110.13;;;8.19;100.00
78373;BME280;67656;52.074;4.758;2024-03-02T10:02:56;100119.91;;;8.14;100.00
78373;BME280;67656;52.074;4.758;2024-03-02T10:08:02;100115.28;;;8.52;100.00
78373;BME280;67656;52.074;4.758;2024-03-02T10:13:04;100110.19;;;8.48;100.00
78373;BME280;67656;52.074;4.758;2024-03-02T10:18:10;100116.44;;;8.72;100.00
78373;BME280;67656;52.074;4.758;2024-03-02T10:23:15;100118.72;;;8.83;100.00
78373;BME280;67656;52.074;4.758;2024-03-02T10:28:16;100110.47;;;8.94;100.00
78373;BME280;67656;52.074;4.758;2024-03-02T10:33:17;100095.28;;;9.02;100.00
78373;BME280;67656;52.074;4.758;2024-03-02T10:38:18;100084.66;;;9.05;100.00
78373;BME280;67656;52.074;4.758;2024-03-02T10:43:26;100081.19;;;9.30;100.00
78373;BME280;67656;52.074;4.758;2024-03-02T10:48:28;100072.66;;;9.47;100.00
78373;BME280;67656;52.074;4.758;2024-03-02T10:53:29;100065.66;;;9.47;100.00
78373;BME280;67656;52.074;4.758;2024-03-02T10:58:32;100052.84;;;9.62;100.00
78373;BME280;67656;52.074;4.758;2024-03-02T11:03:35;100062.31;;;9.90;100.00
78373;BME280;67656;52.074;4.758;2024-03-02T11:08:47;100059.81;;;9.87;100.00
78373;BME280;67656;52.074;4.758;2024-03-02T11:13:56;100041.09;;;9.94;100.00
78373;BME280;67656;52.074;4.758;2024-03-02T11:18:58;100049.84;;;10.41;100.00
78373;BME280;67656;52.074;4.758;2024-03-02T11:23:59;100050.78;;;10.16;100.00
78373;BME280;67656;52.074;4.758;2024-03-02T11:29:02;100058.16;;;10.30;100.00
78373;BME280;67656;52.074;4.758;2024-03-02T11:34:37;100054.16;;;10.20;100.00
78373;BME280;67656;52.074;4.758;2024-03-02T11:39:40;100053.69;;;10.32;100.00
78373;BME280;67656;52.074;4.758;2024-03-02T11:45:04;100052.19;;;10.49;100.00
78373;BME280;67656;52.074;4.758;2024-03-02T11:50:05;100040.44;;;10.78;100.00
78373;BME280;67656;52.074;4.758;2024-03-02T11:55:07;100038.38;;;10.85;100.00
78373;BME280;67656;52.074;4.758;2024-03-02T12:00:17;100019.91;;;10.64;100.00
78373;BME280;67656;52.074;4.758;2024-03-02T12:05:19;100013.34;;;10.73;100.00
78373;BME280;67656;52.074;4.758;2024-03-02T12:10:19;99998.06;;;10.81;100.00
78373;BME280;67656;52.074;4.758;2024-03-02T12:15:26;99995.34;;;11.03;100.00
78373;BME280;67656;52.074;4.758;2024-03-02T12:20:29;99978.06;;;10.96;100.00
78373;BME280;67656;52.074;4.758;2024-03-02T12:25:41;99980.50;;;11.01;100.00
78373;BME280;67656;52.074;4.758;2024-03-02T12:30:49;99983.56;;;10.71;100.00
78373;BME280;67656;52.074;4.758;2024-03-02T12:35:50;99971.31;;;11.10;100.00
78373;BME280;67656;52.074;4.758;2024-03-02T12:40:51;99972.22;;;11.29;100.00
78373;BME280;67656;52.074;4.758;2024-03-02T12:45:53;99969.94;;;11.41;100.00
78373;BME280;67656;52.074;4.758;2024-03-02T12:50:53;99978.50;;;11.27;100.00
78373;BME280;67656;52.074;4.758;2024-03-02T12:55:54;99975.44;;;11.55;100.00
78373;BME280;67656;52.074;4.758;2024-03-02T13:01:07;99963.16;;;11.73;100.00
78373;BME280;67656;52.074;4.758;2024-03-02T13:06:10;99957.47;;;11.82;100.00
78373;BME280;67656;52.074;4.758;2024-03-02T13:11:15;99945.66;;;11.32;100.00
78373;BME280;67656;52.074;4.758;2024-03-02T13:16:16;99941.19;;;11.53;100.00
78373;BME280;67656;52.074;4.758;2024-03-02T13:21:17;99933.50;;;11.09;100.00
78373;BME280;67656;52.074;4.758;2024-03-02T13:26:17;99937.72;;;11.32;100.00
78373;BME280;67656;52.074;4.758;2024-03-02T13:31:17;99925.75;;;11.63;100.00
78373;BME280;67656;52.074;4.758;2024-03-02T13:36:18;99926.59;;;11.45;100.00
78373;BME280;67656;52.074;4.758;2024-03-02T13:41:18;99928.28;;;11.84;100.00
78373;BME280;67656;52.074;4.758;2024-03-02T13:46:19;99925.00;;;11.79;100.00
78373;BME280;67656;52.074;4.758;2024-03-02T13:51:19;99920.09;;;11.90;100.00
78373;BME280;67656;52.074;4.758;2024-03-02T13:56:20;99926.13;;;11.92;100.00
78373;BME280;67656;52.074;4.758;2024-03-02T14:01:23;99901.19;;;11.61;100.00
78373;BME280;67656;52.074;4.758;2024-03-02T14:06:24;99884.78;;;11.35;100.00
78373;BME280;67656;52.074;4.758;2024-03-02T14:11:24;99885.25;;;11.44;100.00
78373;BME280;67656;52.074;4.758;2024-03-02T14:16:25;99876.88;;;11.53;100.00
78373;BME280;67656;52.074;4.758;2024-03-02T14:21:25;99875.97;;;11.54;100.00
78373;BME280;67656;52.074;4.758;2024-03-02T14:26:25;99893.63;;;11.15;100.00
78373;BME280;67656;52.074;4.758;2024-03-02T14:31:26;99882.97;;;11.17;100.00
78373;BME280;67656;52.074;4.758;2024-03-02T14:36:52;99877.69;;;11.17;100.00
78373;BME280;67656;52.074;4.758;2024-03-02T14:42:15;99881.34;;;11.33;100.00
78373;BME280;67656;52.074;4.758;2024-03-02T14:47:17;99879.50;;;11.35;100.00
78373;BME280;67656;52.074;4.758;2024-03-02T14:52:18;99893.47;;;11.37;100.00
78373;BME280;67656;52.074;4.758;2024-03-02T14:57:21;99890.59;;;11.61;100.00
78373;BME280;67656;52.074;4.758;2024-03-02T15:02:21;99880.50;;;11.52;100.00
78373;BME280;67656;52.074;4.758;2024-03-02T15:07:22;99871.19;;;11.62;100.00
78373;BME280;67656;52.074;4.758;2024-03-02T15:12:29;99884.88;;;11.71;100.00
78373;BME280;67656;52.074;4.758;2024-03-02T15:17:30;99892.56;;;11.58;100.00
78373;BME280;67656;52.074;4.758;2024-03-02T15:22:31;99874.19;;;11.55;100.00
78373;BME280;67656;52.074;4.758;2024-03-02T15:27:34;99875.47;;;11.46;100.00
78373;BME280;67656;52.074;4.758;2024-03-02T15:33:05;99874.13;;;11.37;100.00
78373;BME280;67656;52.074;4.758;2024-03-02T15:38:25;99869.53;;;11.21;100.00
78373;BME280;67656;52.074;4.758;2024-03-02T15:43:26;99851.34;;;11.15;100.00
78373;BME280;67656;52.074;4.758;2024-03-02T15:48:26;99853.34;;;11.29;100.00
78373;BME280;67656;52.074;4.758;2024-03-02T15:53:27;99844.56;;;11.48;100.00
78373;BME280;67656;52.074;4.758;2024-03-02T15:58:27;99842.88;;;11.28;100.00
78373;BME280;67656;52.074;4.758;2024-03-02T16:03:30;99841.38;;;11.22;100.00
78373;BME280;67656;52.074;4.758;2024-03-02T16:08:31;99835.28;;;11.20;100.00
78373;BME280;67656;52.074;4.758;2024-03-02T16:13:32;99832.16;;;11.12;100.00
78373;BME280;67656;52.074;4.758;2024-03-02T16:18:32;99825.53;;;11.22;100.00
78373;BME280;67656;52.074;4.758;2024-03-02T16:23:33;99823.31;;;11.13;100.00
78373;BME280;67656;52.074;4.758;2024-03-02T16:28:33;99818.09;;;10.92;100.00
78373;BME280;67656;52.074;4.758;2024-03-02T16:33:34;99806.81;;;10.69;100.00
78373;BME280;67656;52.074;4.758;2024-03-02T16:38:35;99813.19;;;10.44;100.00
78373;BME280;67656;52.074;4.758;2024-03-02T16:43:35;99809.03;;;10.39;100.00
78373;BME280;67656;52.074;4.758;2024-03-02T16:48:36;99803.50;;;10.45;100.00
78373;BME280;67656;52.074;4.758;2024-03-02T16:53:36;99807.91;;;10.44;100.00
78373;BME280;67656;52.074;4.758;2024-03-02T16:58:37;99813.88;;;10.48;100.00
78373;BME280;67656;52.074;4.758;2024-03-02T17:03:43;99818.78;;;10.57;100.00
78373;BME280;67656;52.074;4.758;2024-03-02T17:08:44;99821.88;;;10.47;100.00
78373;BME280;67656;52.074;4.758;2024-03-02T17:13:44;99823.84;;;10.41;100.00
78373;BME280;67656;52.074;4.758;2024-03-02T17:18:45;99831.56;;;10.46;100.00
78373;BME280;67656;52.074;4.758;2024-03-02T17:23:53;99838.38;;;10.52;100.00
78373;BME280;67656;52.074;4.758;2024-03-02T17:28:54;99838.09;;;10.58;100.00
78373;BME280;67656;52.074;4.758;2024-03-02T17:33:54;99847.84;;;10.56;100.00
78373;BME280;67656;52.074;4.758;2024-03-02T17:38:55;99841.41;;;10.42;100.00
78373;BME280;67656;52.074;4.758;2024-03-02T17:43:55;99850.22;;;10.41;100.00
78373;BME280;67656;52.074;4.758;2024-03-02T17:48:56;99857.22;;;10.42;100.00
78373;BME280;67656;52.074;4.758;2024-03-02T17:53:56;99856.06;;;10.50;100.00
78373;BME280;67656;52.074;4.758;2024-03-02T17:58:57;99861.13;;;10.54;100.00
78373;BME280;67656;52.074;4.758;2024-03-02T18:04:00;99859.31;;;10.55;100.00
78373;BME280;67656;52.074;4.758;2024-03-02T18:09:00;99851.28;;;10.58;100.00
78373;BME280;67656;52.074;4.758;2024-03-02T18:14:04;99866.13;;;10.60;100.00
78373;BME280;67656;52.074;4.758;2024-03-02T18:19:04;99873.69;;;10.68;100.00
78373;BME280;67656;52.074;4.758;2024-03-02T18:24:05;99862.84;;;10.55;100.00
78373;BME280;67656;52.074;4.758;2024-03-02T18:29:05;99865.53;;;10.54;100.00
78373;BME280;67656;52.074;4.758;2024-03-02T18:34:06;99869.09;;;10.53;100.00
78373;BME280;67656;52.074;4.758;2024-03-02T18:39:06;99867.41;;;10.52;100.00
78373;BME280;67656;52.074;4.758;2024-03-02T18:44:08;99875.56;;;10.45;100.00
78373;BME280;67656;52.074;4.758;2024-03-02T18:49:11;99870.97;;;10.51;100.00
78373;BME280;67656;52.074;4.758;2024-03-02T18:54:12;99870.47;;;10.62;100.00
78373;BME280;67656;52.074;4.758;2024-03-02T18:59:12;99867.84;;;10.62;100.00
78373;BME280;67656;52.074;4.758;2024-03-02T19:04:13;99868.38;;;10.49;100.00
78373;BME280;67656;52.074;4.758;2024-03-02T19:09:13;99864.56;;;10.56;100.00
78373;BME280;67656;52.074;4.758;2024-03-02T19:14:14;99867.31;;;10.33;100.00
78373;BME280;67656;52.074;4.758;2024-03-02T19:19:14;99864.84;;;10.28;100.00
78373;BME280;67656;52.074;4.758;2024-03-02T19:24:15;99853.25;;;10.11;100.00
78373;BME280;67656;52.074;4.758;2024-03-02T19:29:15;99856.53;;;10.17;100.00
78373;BME280;67656;52.074;4.758;2024-03-02T19:34:16;99850.59;;;10.11;100.00
78373;BME280;67656;52.074;4.758;2024-03-02T19:39:17;99839.50;;;10.03;100.00
78373;BME280;67656;52.074;4.758;2024-03-02T19:44:18;99848.06;;;9.88;100.00
78373;BME280;67656;52.074;4.758;2024-03-02T19:49:18;99849.50;;;9.74;100.00
78373;BME280;67656;52.074;4.758;2024-03-02T19:54:19;99840.00;;;9.70;100.00
78373;BME280;67656;52.074;4.758;2024-03-02T19:59:19;99841.41;;;9.57;100.00
78373;BME280;67656;52.074;4.758;2024-03-02T20:04:23;99846.94;;;9.50;100.00
78373;BME280;67656;52.074;4.758;2024-03-02T20:09:23;99855.50;;;9.56;100.00
78373;BME280;67656;52.074;4.758;2024-03-02T20:14:27;99846.97;;;9.71;100.00
78373;BME280;67656;52.074;4.758;2024-03-02T20:19:28;99829.06;;;9.79;100.00
78373;BME280;67656;52.074;4.758;2024-03-02T20:24:31;99827.31;;;9.80;100.00
78373;BME280;67656;52.074;4.758;2024-03-02T20:29:31;99842.38;;;9.76;100.00
78373;BME280;67656;52.074;4.758;2024-03-02T20:34:32;99830.78;;;9.80;100.00
78373;BME280;67656;52.074;4.758;2024-03-02T20:39:32;99825.81;;;9.95;100.00
78373;BME280;67656;52.074;4.758;2024-03-02T20:44:33;99825.91;;;9.92;100.00
78373;BME280;67656;52.074;4.758;2024-03-02T20:49:33;99841.09;;;10.07;100.00
78373;BME280;67656;52.074;4.758;2024-03-02T20:54:33;99834.22;;;10.03;100.00
78373;BME280;67656;52.074;4.758;2024-03-02T20:59:34;99832.06;;;9.92;100.00
78373;BME280;67656;52.074;4.758;2024-03-02T21:04:35;99834.09;;;9.86;100.00
78373;BME280;67656;52.074;4.758;2024-03-02T21:09:35;99847.41;;;9.60;100.00
78373;BME280;67656;52.074;4.758;2024-03-02T21:14:35;99838.56;;;9.39;100.00
78373;BME280;67656;52.074;4.758;2024-03-02T21:19:36;99851.06;;;9.34;100.00
78373;BME280;67656;52.074;4.758;2024-03-02T21:24:37;99854.97;;;9.24;100.00
78373;BME280;67656;52.074;4.758;2024-03-02T21:29:37;99859.00;;;9.10;100.00
78373;BME280;67656;52.074;4.758;2024-03-02T21:34:37;99864.47;;;9.04;100.00
78373;BME280;67656;52.074;4.758;2024-03-02T21:39:38;99862.66;;;9.06;100.00
78373;BME280;67656;52.074;4.758;2024-03-02T21:44:38;99862.91;;;9.00;100.00
78373;BME280;67656;52.074;4.758;2024-03-02T21:49:39;99866.09;;;9.08;100.00
78373;BME280;67656;52.074;4.758;2024-03-02T21:54:39;99863.47;;;9.08;100.00
78373;BME280;67656;52.074;4.758;2024-03-02T21:59:39;99862.44;;;9.12;100.00
78373;BME280;67656;52.074;4.758;2024-03-02T22:04:40;99869.41;;;9.13;100.00
78373;BME280;67656;52.074;4.758;2024-03-02T22:09:40;99873.63;;;9.17;100.00
78373;BME280;67656;52.074;4.758;2024-03-02T22:14:41;99867.22;;;9.25;100.00
78373;BME280;67656;52.074;4.758;2024-03-02T22:19:41;99869.00;;;9.24;100.00
78373;BME280;67656;52.074;4.758;2024-03-02T22:24:42;99863.31;;;9.35;100.00
78373;BME280;67656;52.074;4.758;2024-03-02T22:29:42;99856.84;;;9.44;100.00
78373;BME280;67656;52.074;4.758;2024-03-02T22:34:45;99859.53;;;9.42;100.00
78373;BME280;67656;52.074;4.758;2024-03-02T22:39:45;99851.72;;;9.39;100.00
78373;BME280;67656;52.074;4.758;2024-03-02T22:44:45;99852.31;;;9.47;100.00
78373;BME280;67656;52.074;4.758;2024-03-02T22:49:46;99846.44;;;9.63;100.00
78373;BME280;67656;52.074;4.758;2024-03-02T22:54:46;99844.22;;;9.74;100.00
78373;BME280;67656;52.074;4.758;2024-03-02T22:59:50;99848.13;;;9.86;100.00
78373;BME280;67656;52.074;4.758;2024-03-02T23:04:50;99841.88;;;9.89;100.00
78373;BME280;67656;52.074;4.758;2024-03-02T23:09:51;99854.00;;;9.93;100.00
78373;BME280;67656;52.074;4.758;2024-03-02T23:14:51;99848.72;;;9.93;100.00
78373;BME280;67656;52.074;4.758;2024-03-02T23:19:52;99849.53;;;9.95;100.00
78373;BME280;67656;52.074;4.758;2024-03-02T23:24:52;99846.66;;;10.01;100.00
78373;BME280;67656;52.074;4.758;2024-03-02T23:29:53;99855.00;;;9.90;100.00
78373;BME280;67656;52.074;4.758;2024-03-02T23:34:53;99850.72;;;9.88;100.00
78373;BME280;67656;52.074;4.758;2024-03-02T23:39:54;99855.09;;;9.87;100.00
78373;BME280;67656;52.074;4.758;2024-03-02T23:44:54;99853.94;;;9.94;100.00
78373;BME280;67656;52.074;4.758;2024-03-02T23:49:55;99860.38;;;9.87;100.00
78373;BME280;67656;52.074;4.758;2024-03-02T23:54:55;99864.53;;;9.71;100.00
78373;BME280;67656;52.074;4.758;2024-03-02T23:59:56;99862.59;;;9.53;100.00
